createdAt,value
2016-04-25T00:00:11.341Z,0
2016-04-25T00:00:57.250Z,0
2016-04-25T00:01:58.268Z,0
2016-04-25T00:02:57.238Z,0
2016-04-25T00:03:57.241Z,0
2016-04-25T00:04:57.667Z,0
2016-04-25T00:05:57.247Z,0
2016-04-25T00:06:57.218Z,0
2016-04-25T00:07:57.409Z,0
2016-04-25T00:08:57.692Z,0
2016-04-25T00:09:57.243Z,0
2016-04-25T00:10:57.246Z,0
2016-04-25T00:11:57.591Z,0
2016-04-25T00:13:57.425Z,0
2016-04-25T00:14:58.099Z,0
2016-04-25T00:15:57.837Z,0
2016-04-25T00:17:11.512Z,0
2016-04-25T00:17:57.654Z,0
2016-04-25T00:18:58.234Z,0
2016-04-25T00:20:03.503Z,0
2016-04-25T00:20:57.460Z,0
2016-04-25T00:22:11.289Z,0
2016-04-25T00:22:57.626Z,0
2016-04-25T00:23:57.817Z,0
2016-04-25T00:24:57.179Z,0
2016-04-25T00:25:57.197Z,0
2016-04-25T00:26:57.559Z,0
2016-04-25T00:27:57.734Z,0
2016-04-25T00:28:57.220Z,0
2016-04-25T00:29:57.365Z,0
2016-04-25T00:30:57.195Z,0
2016-04-25T00:31:57.182Z,0
2016-04-25T00:32:56.685Z,0
2016-04-25T00:33:57.156Z,0
2016-04-25T00:34:57.253Z,0
2016-04-25T00:35:57.239Z,0
2016-04-25T00:36:57.259Z,0
2016-04-25T00:37:57.402Z,0
2016-04-25T00:38:57.186Z,0
2016-04-25T00:39:56.686Z,0
2016-04-25T00:40:57.160Z,0
2016-04-25T00:41:57.537Z,0
2016-04-25T00:42:58.166Z,0
2016-04-25T00:43:56.416Z,0
2016-04-25T00:44:57.152Z,0
2016-04-25T00:45:57.171Z,0
2016-04-25T00:46:57.583Z,0
2016-04-25T00:47:57.366Z,0
2016-04-25T00:49:11.838Z,0
2016-04-25T00:49:57.762Z,0
2016-04-25T00:50:57.074Z,0
2016-04-25T00:51:57.124Z,0
2016-04-25T00:52:57.314Z,0
2016-04-25T00:54:11.632Z,0
2016-04-25T00:54:57.604Z,0
2016-04-25T00:55:57.291Z,0
2016-04-25T00:56:57.200Z,0
2016-04-25T00:57:57.344Z,0
2016-04-25T00:58:58.099Z,0
2016-04-25T01:00:57.132Z,0
2016-04-25T01:01:57.903Z,0
2016-04-25T01:02:57.091Z,0
2016-04-25T01:03:57.079Z,0
2016-04-25T01:04:56.987Z,0
2016-04-25T01:05:57.475Z,0
2016-04-25T01:06:57.117Z,0
2016-04-25T01:07:57.120Z,0
2016-04-25T01:08:57.061Z,0
2016-04-25T01:09:57.470Z,0
2016-04-25T01:10:56.316Z,0
2016-04-25T01:11:57.318Z,0
2016-04-25T01:13:11.558Z,0
2016-04-25T01:13:57.058Z,0
2016-04-25T01:15:11.969Z,0
2016-04-25T01:15:57.547Z,0
2016-04-25T01:16:57.269Z,0
2016-04-25T01:17:56.303Z,0
2016-04-25T01:19:11.371Z,0
2016-04-25T01:19:58.108Z,0
2016-04-25T01:21:11.360Z,0
2016-04-25T01:21:56.985Z,0
2016-04-25T01:22:57.224Z,0
2016-04-25T01:23:56.554Z,0
2016-04-25T01:24:57.071Z,0
2016-04-25T01:25:57.481Z,0
2016-04-25T01:26:57.718Z,0
2016-04-25T01:28:11.693Z,0
2016-04-25T01:28:57.255Z,0
2016-04-25T01:29:57.226Z,0
2016-04-25T01:30:57.245Z,0
2016-04-25T01:31:57.420Z,0
2016-04-25T01:32:57.250Z,0
2016-04-25T01:33:57.065Z,0
2016-04-25T01:34:57.287Z,0
2016-04-25T01:35:56.758Z,0
2016-04-25T01:37:25.389Z,0
2016-04-25T01:37:57.186Z,0
2016-04-25T01:38:57.438Z,0
2016-04-25T01:39:56.519Z,0
2016-04-25T01:40:56.522Z,0
2016-04-25T01:41:57.072Z,0
2016-04-25T01:42:58.982Z,0
2016-04-25T01:43:57.154Z,0
2016-04-25T01:45:11.113Z,0
2016-04-25T01:45:57.191Z,0
2016-04-25T01:47:11.306Z,0
2016-04-25T01:47:56.978Z,0
2016-04-25T01:48:56.996Z,0
2016-04-25T01:49:56.952Z,0
2016-04-25T01:51:11.082Z,0
2016-04-25T01:51:56.957Z,0
2016-04-25T01:52:56.960Z,0
2016-04-25T01:54:11.263Z,0
2016-04-25T01:54:57.185Z,0
2016-04-25T01:55:57.155Z,0
2016-04-25T01:56:57.002Z,0
2016-04-25T01:57:58.442Z,0
2016-04-25T01:58:57.163Z,0
2016-04-25T01:59:56.932Z,0
2016-04-25T02:00:56.934Z,0
2016-04-25T02:01:56.938Z,0
2016-04-25T02:02:56.924Z,0
2016-04-25T02:03:57.115Z,0
2016-04-25T02:04:56.789Z,0
2016-04-25T02:05:56.901Z,0
2016-04-25T02:06:57.123Z,0
2016-04-25T02:07:56.923Z,0
2016-04-25T02:08:57.097Z,0
2016-04-25T02:09:57.318Z,0
2016-04-25T02:10:57.320Z,0
2016-04-25T02:11:57.106Z,0
2016-04-25T02:12:57.764Z,0
2016-04-25T02:13:56.907Z,0
2016-04-25T02:14:56.925Z,0
2016-04-25T02:15:56.928Z,0
2016-04-25T02:16:57.509Z,0
2016-04-25T02:17:57.089Z,0
2016-04-25T02:18:57.155Z,0
2016-04-25T02:19:57.079Z,0
2016-04-25T02:21:11.195Z,0
2016-04-25T02:21:56.914Z,0
2016-04-25T02:22:58.166Z,0
2016-04-25T02:23:57.027Z,0
2016-04-25T02:24:56.874Z,0
2016-04-25T02:25:57.157Z,0
2016-04-25T02:26:57.068Z,0
2016-04-25T02:27:57.289Z,0
2016-04-25T02:28:56.556Z,0
2016-04-25T02:29:56.607Z,0
2016-04-25T02:30:56.828Z,0
2016-04-25T02:31:56.846Z,0
2016-04-25T02:32:57.052Z,0
2016-04-25T02:33:57.415Z,0
2016-04-25T02:34:56.808Z,0
2016-04-25T02:36:11.109Z,0
2016-04-25T02:36:56.859Z,0
2016-04-25T02:38:11.567Z,0
2016-04-25T02:38:56.552Z,0
2016-04-25T02:39:56.852Z,0
2016-04-25T02:40:57.012Z,0
2016-04-25T02:41:57.264Z,0
2016-04-25T02:43:11.331Z,0
2016-04-25T02:43:57.050Z,0
2016-04-25T02:45:56.994Z,0
2016-04-25T02:46:57.200Z,0
2016-04-25T02:47:56.733Z,0
2016-04-25T02:48:56.798Z,0
2016-04-25T02:49:56.973Z,0
2016-04-25T02:50:56.507Z,0
2016-04-25T02:51:56.760Z,0
2016-04-25T02:52:56.200Z,0
2016-04-25T02:53:56.983Z,0
2016-04-25T02:54:56.752Z,0
2016-04-25T02:55:56.957Z,0
2016-04-25T02:56:56.289Z,0
2016-04-25T02:57:57.510Z,0
2016-04-25T02:58:57.591Z,0
2016-04-25T02:59:56.922Z,0
2016-04-25T03:01:11.927Z,0
2016-04-25T03:01:56.224Z,0
2016-04-25T03:02:56.742Z,0
2016-04-25T03:03:56.230Z,0
2016-04-25T03:05:56.734Z,0
2016-04-25T03:07:11.224Z,0
2016-04-25T03:07:57.396Z,0
2016-04-25T03:08:56.945Z,0
2016-04-25T03:11:11.189Z,0
2016-04-25T03:12:56.800Z,0
2016-04-25T03:13:56.819Z,0
2016-04-25T03:14:56.712Z,0
2016-04-25T03:15:56.683Z,0
2016-04-25T03:16:56.873Z,0
2016-04-25T03:18:56.660Z,0
2016-04-25T03:19:56.679Z,0
2016-04-25T03:20:56.900Z,0
2016-04-25T03:21:56.777Z,0
2016-04-25T03:22:57.077Z,0
2016-04-25T03:23:56.674Z,0
2016-04-25T03:24:56.176Z,0
2016-04-25T03:25:56.897Z,0
2016-04-25T03:26:56.635Z,0
2016-04-25T03:27:57.294Z,0
2016-04-25T03:29:10.737Z,0
2016-04-25T03:29:57.237Z,0
2016-04-25T03:30:56.629Z,0
2016-04-25T03:31:56.882Z,0
2016-04-25T03:32:56.808Z,0
2016-04-25T03:33:56.809Z,0
2016-04-25T03:34:56.626Z,0
2016-04-25T03:37:10.696Z,0
2016-04-25T03:38:10.901Z,0
2016-04-25T03:38:56.776Z,0
2016-04-25T03:39:55.873Z,0
2016-04-25T03:40:56.578Z,0
2016-04-25T03:41:56.847Z,0
2016-04-25T03:42:57.303Z,0
2016-04-25T03:44:10.495Z,0
2016-04-25T03:45:10.889Z,0
2016-04-25T03:46:56.829Z,0
2016-04-25T03:48:10.881Z,0
2016-04-25T03:48:56.788Z,0
2016-04-25T03:49:56.806Z,0
2016-04-25T03:51:10.702Z,5
2016-04-25T03:51:57.342Z,5
2016-04-25T03:52:56.580Z,5
2016-04-25T03:53:56.567Z,5
2016-04-25T03:55:10.900Z,5
2016-04-25T03:56:10.622Z,5
2016-04-25T03:56:56.763Z,10
2016-04-25T03:57:56.766Z,10
2016-04-25T03:58:56.143Z,10
2016-04-25T03:59:56.738Z,10
2016-04-25T04:01:10.824Z,15
2016-04-25T04:02:10.152Z,15
2016-04-25T04:03:10.812Z,20
2016-04-25T04:03:56.703Z,20
2016-04-25T04:04:56.846Z,20
2016-04-25T04:06:56.727Z,25
2016-04-25T04:07:56.276Z,25
2016-04-25T04:08:56.888Z,30
2016-04-25T04:09:56.688Z,30
2016-04-25T04:10:56.707Z,35
2016-04-25T04:11:56.240Z,35
2016-04-25T04:12:57.023Z,35
2016-04-25T04:14:10.605Z,40
2016-04-25T04:14:56.702Z,40
2016-04-25T04:15:56.532Z,40
2016-04-25T04:17:10.551Z,45
2016-04-25T04:17:56.459Z,45
2016-04-25T04:19:10.572Z,50
2016-04-25T04:19:56.450Z,50
2016-04-25T04:20:57.045Z,55
2016-04-25T04:21:55.971Z,55
2016-04-25T04:22:56.473Z,55
2016-04-25T04:23:56.476Z,60
2016-04-25T04:24:56.181Z,60
2016-04-25T04:25:56.856Z,65
2016-04-25T04:26:56.452Z,65
2016-04-25T04:27:55.753Z,65
2016-04-25T04:29:10.099Z,70
2016-04-25T04:29:56.414Z,70
2016-04-25T04:30:57.088Z,75
2016-04-25T04:31:56.654Z,70
2016-04-25T04:32:56.390Z,70
2016-04-25T04:33:56.456Z,70
2016-04-25T04:35:10.537Z,75
2016-04-25T04:35:56.618Z,75
2016-04-25T04:36:56.370Z,75
2016-04-25T04:37:56.826Z,80
2016-04-25T04:38:55.876Z,85
2016-04-25T04:40:10.487Z,85
2016-04-25T04:40:56.599Z,85
2016-04-25T04:41:56.571Z,85
2016-04-25T04:42:57.496Z,80
2016-04-25T04:43:57.295Z,85
2016-04-25T04:44:56.360Z,85
2016-04-25T04:45:56.378Z,75
2016-04-25T04:46:56.351Z,75
2016-04-25T04:47:55.650Z,80
2016-04-25T04:48:56.403Z,75
2016-04-25T04:50:56.986Z,70
2016-04-25T04:51:56.770Z,70
2016-04-25T04:53:10.836Z,65
2016-04-25T04:53:56.353Z,65
2016-04-25T04:54:56.341Z,60
2016-04-25T04:55:56.764Z,60
2016-04-25T04:56:56.299Z,65
2016-04-25T04:58:11.224Z,65
2016-04-25T04:58:58.569Z,65
2016-04-25T04:59:56.338Z,65
2016-04-25T05:00:56.528Z,65
2016-04-25T05:01:56.328Z,65
2016-04-25T05:02:56.940Z,65
2016-04-25T05:03:56.318Z,75
2016-04-25T05:05:56.339Z,105
2016-04-25T05:06:56.310Z,110
2016-04-25T05:07:56.907Z,110
2016-04-25T05:08:56.284Z,105
2016-04-25T05:09:56.521Z,105
2016-04-25T05:11:24.668Z,120
2016-04-25T05:11:56.512Z,125
2016-04-25T05:12:56.768Z,125
2016-04-25T05:13:57.533Z,135
2016-04-25T05:15:56.643Z,135
2016-04-25T05:16:56.971Z,140
2016-04-25T05:17:56.698Z,140
2016-04-25T05:19:10.842Z,145
2016-04-25T05:19:56.735Z,150
2016-04-25T05:20:56.738Z,155
2016-04-25T05:21:56.600Z,160
2016-04-25T05:22:56.579Z,160
2016-04-25T05:23:56.994Z,160
2016-04-25T05:24:56.613Z,160
2016-04-25T05:27:56.493Z,180
2016-04-25T05:28:58.935Z,180
2016-04-25T05:29:56.018Z,185
2016-04-25T05:31:56.590Z,185
2016-04-25T05:32:56.765Z,185
2016-04-25T05:33:56.488Z,180
2016-04-25T05:34:56.569Z,170
2016-04-25T05:35:56.557Z,165
2016-04-25T05:36:56.560Z,170
2016-04-25T05:37:57.158Z,170
2016-04-25T05:38:56.769Z,185
2016-04-25T05:40:10.851Z,205
2016-04-25T05:40:56.776Z,250
2016-04-25T05:41:56.764Z,295
2016-04-25T05:42:56.781Z,280
2016-04-25T05:43:57.223Z,240
2016-04-25T05:44:56.084Z,220
2016-04-25T05:46:10.852Z,205
2016-04-25T05:46:56.777Z,210
2016-04-25T05:47:56.780Z,215
2016-04-25T05:48:56.517Z,220
2016-04-25T05:49:56.958Z,215
2016-04-25T05:50:56.710Z,220
2016-04-25T05:51:56.571Z,220
2016-04-25T05:52:56.716Z,235
2016-04-25T05:53:56.546Z,240
2016-04-25T05:54:56.516Z,250
2016-04-25T05:55:56.708Z,255
2016-04-25T05:56:56.538Z,250
2016-04-25T05:57:57.041Z,245
2016-04-25T05:58:57.263Z,260
2016-04-25T05:59:56.515Z,270
2016-04-25T06:00:56.940Z,305
2016-04-25T06:01:56.754Z,330
2016-04-25T06:02:56.524Z,350
2016-04-25T06:04:55.762Z,305
2016-04-25T06:05:56.532Z,300
2016-04-25T06:06:56.503Z,270
2016-04-25T06:08:10.599Z,205
2016-04-25T06:08:56.680Z,195
2016-04-25T06:09:56.698Z,205
2016-04-25T06:10:55.748Z,190
2016-04-25T06:11:56.484Z,155
2016-04-25T06:13:10.394Z,135
2016-04-25T06:13:56.912Z,145
2016-04-25T06:14:56.493Z,145
2016-04-25T06:16:56.514Z,160
2016-04-25T06:17:56.486Z,205
2016-04-25T06:18:56.519Z,235
2016-04-25T06:19:56.709Z,240
2016-04-25T06:20:56.509Z,255
2016-04-25T06:21:56.480Z,290
2016-04-25T06:22:56.484Z,305
2016-04-25T06:24:10.096Z,295
2016-04-25T06:24:55.708Z,300
2016-04-25T06:25:56.476Z,310
2016-04-25T06:26:56.698Z,340
2016-04-25T06:27:56.654Z,325
2016-04-25T06:29:11.172Z,295
2016-04-25T06:29:56.987Z,275
2016-04-25T06:30:56.522Z,240
2016-04-25T06:32:10.774Z,230
2016-04-25T06:32:55.745Z,240
2016-04-25T06:33:56.702Z,265
2016-04-25T06:34:55.985Z,270
2016-04-25T06:35:56.770Z,250
2016-04-25T06:36:56.678Z,300
2016-04-25T06:37:56.462Z,280
2016-04-25T06:38:56.481Z,225
2016-04-25T06:39:56.482Z,190
2016-04-25T06:40:56.658Z,140
2016-04-25T06:41:56.488Z,130
2016-04-25T06:42:56.976Z,170
2016-04-25T06:43:58.337Z,180
2016-04-25T06:44:56.794Z,200
2016-04-25T06:45:56.484Z,245
2016-04-25T06:46:56.487Z,265
2016-04-25T06:47:56.707Z,260
2016-04-25T06:48:56.477Z,235
2016-04-25T06:49:56.681Z,200
2016-04-25T06:50:56.513Z,200
2016-04-25T06:51:56.484Z,200
2016-04-25T06:53:11.049Z,245
2016-04-25T06:53:56.489Z,260
2016-04-25T06:54:56.884Z,300
2016-04-25T06:55:56.636Z,310
2016-04-25T06:57:10.545Z,295
2016-04-25T06:57:56.453Z,300
2016-04-25T06:59:11.237Z,280
2016-04-25T07:00:10.084Z,255
2016-04-25T07:00:56.009Z,245
2016-04-25T07:02:10.573Z,205
2016-04-25T07:02:56.497Z,170
2016-04-25T07:03:56.453Z,140
2016-04-25T07:04:56.675Z,145
2016-04-25T07:05:56.350Z,160
2016-04-25T07:06:56.478Z,170
2016-04-25T07:07:57.668Z,180
2016-04-25T07:09:56.877Z,205
2016-04-25T07:11:10.066Z,210
2016-04-25T07:11:56.460Z,210
2016-04-25T07:12:56.666Z,180
2016-04-25T07:13:56.559Z,165
2016-04-25T07:14:56.687Z,175
2016-04-25T07:15:56.861Z,140
2016-04-25T07:16:56.442Z,115
2016-04-25T07:17:56.679Z,110
2016-04-25T07:18:56.666Z,120
2016-04-25T07:19:56.451Z,140
2016-04-25T07:20:56.874Z,155
2016-04-25T07:21:56.471Z,155
2016-04-25T07:22:57.129Z,140
2016-04-25T07:23:56.867Z,115
2016-04-25T07:24:56.495Z,110
2016-04-25T07:25:56.670Z,110
2016-04-25T07:26:56.656Z,130
2016-04-25T07:28:11.206Z,165
2016-04-25T07:28:57.350Z,195
2016-04-25T07:29:56.430Z,210
2016-04-25T07:30:56.886Z,240
2016-04-25T07:31:56.498Z,290
2016-04-25T07:32:56.439Z,355
2016-04-25T07:34:56.428Z,275
2016-04-25T07:35:56.415Z,235
2016-04-25T07:36:56.449Z,220
2016-04-25T07:37:56.889Z,190
2016-04-25T07:38:56.641Z,195
2016-04-25T07:39:56.676Z,220
2016-04-25T07:40:56.475Z,185
2016-04-25T07:41:56.213Z,185
2016-04-25T07:42:55.949Z,195
2016-04-25T07:43:56.827Z,220
2016-04-25T07:44:56.298Z,215
2016-04-25T07:45:56.474Z,215
2016-04-25T07:46:56.476Z,250
2016-04-25T07:47:57.276Z,275
2016-04-25T07:48:56.496Z,305
2016-04-25T07:49:56.437Z,335
2016-04-25T07:51:10.987Z,375
2016-04-25T07:51:56.442Z,395
2016-04-25T07:53:10.055Z,405
2016-04-25T07:53:56.479Z,410
2016-04-25T07:54:56.435Z,425
2016-04-25T07:55:56.438Z,440
2016-04-25T07:56:56.487Z,455
2016-04-25T07:57:56.645Z,450
2016-04-25T07:58:58.134Z,440
2016-04-25T07:59:56.433Z,430
2016-04-25T08:00:55.998Z,410
2016-04-25T08:01:56.439Z,375
2016-04-25T08:03:10.519Z,410
2016-04-25T08:03:55.959Z,435
2016-04-25T08:04:56.431Z,455
2016-04-25T08:05:56.449Z,410
2016-04-25T08:06:56.420Z,425
2016-04-25T08:07:56.470Z,495
2016-04-25T08:08:56.425Z,505
2016-04-25T08:09:56.413Z,475
2016-04-25T08:10:56.619Z,350
2016-04-25T08:11:56.622Z,300
2016-04-25T08:12:56.633Z,290
2016-04-25T08:13:56.495Z,345
2016-04-25T08:14:56.201Z,390
2016-04-25T08:15:56.625Z,480
2016-04-25T08:16:56.486Z,590
2016-04-25T08:17:56.615Z,635
2016-04-25T08:18:56.430Z,510
2016-04-25T08:19:56.449Z,325
2016-04-25T08:20:56.201Z,260
2016-04-25T08:21:56.282Z,270
2016-04-25T08:22:56.426Z,290
2016-04-25T08:23:56.429Z,320
2016-04-25T08:24:56.462Z,360
2016-04-25T08:25:56.637Z,400
2016-04-25T08:26:56.703Z,350
2016-04-25T08:27:56.439Z,335
2016-04-25T08:28:56.270Z,355
2016-04-25T08:30:10.805Z,370
2016-04-25T08:30:56.886Z,350
2016-04-25T08:32:10.544Z,330
2016-04-25T08:32:56.500Z,330
2016-04-25T08:33:55.986Z,350
2016-04-25T08:34:56.490Z,395
2016-04-25T08:35:56.492Z,475
2016-04-25T08:36:57.027Z,510
2016-04-25T08:37:56.497Z,450
2016-04-25T08:38:56.485Z,435
2016-04-25T08:39:57.269Z,450
2016-04-25T08:40:55.948Z,475
2016-04-25T08:41:57.466Z,510
2016-04-25T08:42:56.235Z,500
2016-04-25T08:43:56.971Z,510
2016-04-25T08:46:10.587Z,505
2016-04-25T08:46:56.746Z,405
2016-04-25T08:47:56.514Z,320
2016-04-25T08:49:00.735Z,280
2016-04-25T08:49:56.629Z,280
2016-04-25T08:52:10.697Z,265
2016-04-25T08:53:11.043Z,240
2016-04-25T08:53:59.561Z,225
2016-04-25T08:54:56.689Z,220
2016-04-25T08:55:56.551Z,225
2016-04-25T08:56:56.506Z,235
2016-04-25T08:57:56.541Z,260
2016-04-25T08:58:57.997Z,285
2016-04-25T08:59:56.734Z,305
2016-04-25T09:00:56.564Z,330
2016-04-25T09:01:56.552Z,350
2016-04-25T09:02:56.788Z,375
2016-04-25T09:04:10.713Z,400
2016-04-25T09:04:56.294Z,415
2016-04-25T09:05:56.563Z,430
2016-04-25T09:06:57.362Z,440
2016-04-25T09:07:56.974Z,440
2016-04-25T09:08:57.868Z,450
2016-04-25T09:09:57.136Z,455
2016-04-25T09:11:10.998Z,440
2016-04-25T09:11:56.766Z,420
2016-04-25T09:12:56.565Z,395
2016-04-25T09:13:58.615Z,370
2016-04-25T09:14:56.743Z,375
2016-04-25T09:15:57.089Z,355
2016-04-25T09:16:57.189Z,350
2016-04-25T09:17:56.739Z,370
2016-04-25T09:19:11.008Z,345
2016-04-25T09:19:56.276Z,365
2016-04-25T09:20:57.029Z,415
2016-04-25T09:21:57.313Z,440
2016-04-25T09:22:57.066Z,480
2016-04-25T09:23:59.021Z,530
2016-04-25T09:24:57.211Z,555
2016-04-25T09:25:56.620Z,585
2016-04-25T09:26:56.576Z,615
2016-04-25T09:27:56.829Z,555
2016-04-25T09:28:58.566Z,450
2016-04-25T09:29:56.693Z,385
2016-04-25T09:30:56.806Z,330
2016-04-25T09:31:56.651Z,295
2016-04-25T09:32:57.046Z,275
2016-04-25T09:33:58.735Z,275
2016-04-25T09:34:56.612Z,290
2016-04-25T09:35:56.912Z,320
2016-04-25T09:37:10.931Z,345
2016-04-25T09:37:56.621Z,350
2016-04-25T09:38:56.827Z,365
2016-04-25T09:39:56.611Z,380
2016-04-25T09:40:56.661Z,385
2016-04-25T09:41:56.694Z,380
2016-04-25T09:42:59.947Z,365
2016-04-25T09:43:57.559Z,340
2016-04-25T09:44:57.046Z,300
2016-04-25T09:45:57.330Z,305
2016-04-25T09:46:56.036Z,335
2016-04-25T09:48:56.666Z,445
2016-04-25T09:49:56.388Z,485
2016-04-25T09:50:56.860Z,515
2016-04-25T09:51:56.143Z,500
2016-04-25T09:52:56.911Z,495
2016-04-25T09:53:57.460Z,455
2016-04-25T09:54:56.541Z,350
2016-04-25T09:55:56.419Z,280
2016-04-25T09:56:57.141Z,265
2016-04-25T09:57:56.971Z,270
2016-04-25T09:58:56.599Z,280
2016-04-25T10:00:56.902Z,320
2016-04-25T10:01:56.717Z,340
2016-04-25T10:02:56.923Z,365
2016-04-25T10:03:56.722Z,405
2016-04-25T10:04:56.912Z,450
2016-04-25T10:05:56.743Z,505
2016-04-25T10:06:56.918Z,560
2016-04-25T10:07:56.983Z,595
2016-04-25T10:08:56.720Z,625
2016-04-25T10:09:56.270Z,655
2016-04-25T10:10:56.773Z,660
2016-04-25T10:11:56.025Z,660
2016-04-25T10:12:56.246Z,690
2016-04-25T10:14:16.172Z,680
2016-04-25T10:14:56.846Z,660
2016-04-25T10:15:57.427Z,620
2016-04-25T10:16:56.758Z,600
2016-04-25T10:17:57.010Z,575
2016-04-25T10:18:56.763Z,575
2016-04-25T10:20:10.859Z,535
2016-04-25T10:20:56.878Z,510
2016-04-25T10:21:56.286Z,520
2016-04-25T10:22:57.023Z,510
2016-04-25T10:24:00.588Z,480
2016-04-25T10:24:56.294Z,460
2016-04-25T10:26:11.125Z,455
2016-04-25T10:26:56.863Z,450
2016-04-25T10:27:57.005Z,435
2016-04-25T10:28:57.743Z,415
2016-04-25T10:29:58.074Z,390
2016-04-25T10:30:56.874Z,350
2016-04-25T10:31:56.944Z,315
2016-04-25T10:33:10.946Z,290
2016-04-25T10:34:11.965Z,275
2016-04-25T10:34:57.487Z,270
2016-04-25T10:35:56.324Z,270
2016-04-25T10:36:56.998Z,290
2016-04-25T10:37:57.111Z,315
2016-04-25T10:39:03.957Z,360
2016-04-25T10:39:56.898Z,390
2016-04-25T10:40:57.026Z,430
2016-04-25T10:41:56.872Z,465
2016-04-25T10:42:57.045Z,485
2016-04-25T10:44:00.142Z,510
2016-04-25T10:44:57.442Z,520
2016-04-25T10:45:56.133Z,510
2016-04-25T10:46:57.072Z,470
2016-04-25T10:47:56.872Z,430
2016-04-25T10:48:57.078Z,405
2016-04-25T10:49:56.409Z,415
2016-04-25T10:50:56.739Z,420
2016-04-25T10:51:56.914Z,425
2016-04-25T10:52:56.901Z,450
2016-04-25T10:53:59.325Z,495
2016-04-25T10:54:57.312Z,550
2016-04-25T10:55:56.941Z,590
2016-04-25T10:56:56.927Z,630
2016-04-25T10:57:57.149Z,635
2016-04-25T10:58:59.057Z,630
2016-04-25T10:59:57.655Z,595
2016-04-25T11:01:11.219Z,505
2016-04-25T11:01:57.144Z,450
2016-04-25T11:02:56.631Z,370
2016-04-25T11:04:11.056Z,290
2016-04-25T11:04:57.168Z,260
2016-04-25T11:05:56.967Z,245
2016-04-25T11:06:56.954Z,240
2016-04-25T11:07:56.442Z,250
2016-04-25T11:08:56.976Z,260
2016-04-25T11:09:57.009Z,280
2016-04-25T11:10:56.981Z,300
2016-04-25T11:11:57.093Z,305
2016-04-25T11:12:57.705Z,315
2016-04-25T11:13:58.175Z,315
2016-04-25T11:14:57.476Z,330
2016-04-25T11:15:58.869Z,360
2016-04-25T11:16:58.028Z,405
2016-04-25T11:17:57.422Z,450
2016-04-25T11:18:57.143Z,500
2016-04-25T11:19:57.208Z,550
2016-04-25T11:20:57.039Z,585
2016-04-25T11:21:56.714Z,620
2016-04-25T11:22:57.325Z,645
2016-04-25T11:23:57.141Z,660
2016-04-25T11:24:56.877Z,680
2016-04-25T11:25:57.380Z,680
2016-04-25T11:26:57.352Z,665
2016-04-25T11:27:57.074Z,630
2016-04-25T11:28:58.405Z,575
2016-04-25T11:29:56.751Z,530
2016-04-25T11:30:57.066Z,490
2016-04-25T11:31:57.444Z,450
2016-04-25T11:32:57.727Z,435
2016-04-25T11:33:57.308Z,425
2016-04-25T11:34:56.623Z,415
2016-04-25T11:35:56.845Z,405
2016-04-25T11:36:57.113Z,400
2016-04-25T11:37:57.084Z,410
2016-04-25T11:38:57.650Z,420
2016-04-25T11:39:57.121Z,430
2016-04-25T11:40:57.123Z,445
2016-04-25T11:42:11.220Z,470
2016-04-25T11:42:57.161Z,485
2016-04-25T11:43:58.084Z,520
2016-04-25T11:44:57.431Z,550
2016-04-25T11:45:57.169Z,590
2016-04-25T11:46:57.187Z,620
2016-04-25T11:47:57.241Z,615
2016-04-25T11:48:57.358Z,615
2016-04-25T11:49:57.205Z,620
2016-04-25T11:50:57.427Z,595
2016-04-25T11:51:57.319Z,565
2016-04-25T11:52:57.218Z,525
2016-04-25T11:53:57.642Z,490
2016-04-25T11:54:57.442Z,465
2016-04-25T11:55:57.476Z,445
2016-04-25T11:56:57.260Z,430
2016-04-25T11:57:57.216Z,425
2016-04-25T11:58:57.531Z,430
2016-04-25T11:59:57.721Z,440
2016-04-25T12:00:57.286Z,460
2016-04-25T12:01:56.507Z,485
2016-04-25T12:02:57.292Z,500
2016-04-25T12:04:57.515Z,485
2016-04-25T12:06:12.143Z,485
2016-04-25T12:06:57.349Z,485
2016-04-25T12:07:57.398Z,485
2016-04-25T12:08:57.401Z,450
2016-04-25T12:09:57.373Z,410
2016-04-25T12:10:57.328Z,380
2016-04-25T12:11:57.316Z,365
2016-04-25T12:12:57.600Z,350
2016-04-25T12:13:57.993Z,330
2016-04-25T12:14:57.621Z,305
2016-04-25T12:16:11.404Z,295
2016-04-25T12:16:56.813Z,290
2016-04-25T12:17:57.488Z,300
2016-04-25T12:19:11.850Z,315
2016-04-25T12:19:56.838Z,330
2016-04-25T12:20:56.918Z,345
2016-04-25T12:22:11.436Z,380
2016-04-25T12:22:57.783Z,405
2016-04-25T12:23:57.582Z,460
2016-04-25T12:24:57.382Z,505
2016-04-25T12:25:57.619Z,545
2016-04-25T12:26:57.621Z,555
2016-04-25T12:27:57.327Z,545
2016-04-25T12:28:57.518Z,535
2016-04-25T12:30:11.802Z,515
2016-04-25T12:31:25.804Z,460
2016-04-25T12:31:57.135Z,430
2016-04-25T12:32:57.607Z,375
2016-04-25T12:33:57.625Z,325
2016-04-25T12:34:58.346Z,305
2016-04-25T12:35:57.395Z,310
2016-04-25T12:36:57.851Z,330
2016-04-25T12:38:11.511Z,365
2016-04-25T12:38:56.919Z,390
2016-04-25T12:39:57.422Z,415
2016-04-25T12:40:57.456Z,450
2016-04-25T12:41:57.490Z,480
2016-04-25T12:42:57.430Z,495
2016-04-25T12:43:57.620Z,445
2016-04-25T12:44:58.311Z,405
2016-04-25T12:45:57.954Z,380
2016-04-25T12:46:57.723Z,375
2016-04-25T12:47:57.475Z,345
2016-04-25T12:48:57.633Z,360
2016-04-25T12:49:57.872Z,380
2016-04-25T12:50:57.483Z,385
2016-04-25T12:51:56.798Z,420
2016-04-25T12:52:57.988Z,435
2016-04-25T12:54:57.603Z,430
2016-04-25T12:55:57.310Z,420
2016-04-25T12:56:57.770Z,400
2016-04-25T12:57:57.570Z,385
2016-04-25T12:58:58.229Z,380
2016-04-25T13:01:57.815Z,465
2016-04-25T13:02:58.004Z,490
2016-04-25T13:03:57.617Z,525
2016-04-25T13:05:11.354Z,555
2016-04-25T13:05:57.622Z,535
2016-04-25T13:06:57.640Z,480
2016-04-25T13:07:57.706Z,410
2016-04-25T13:08:57.865Z,325
2016-04-25T13:09:57.898Z,270
2016-04-25T13:10:57.495Z,265
2016-04-25T13:11:57.686Z,290
2016-04-25T13:13:11.969Z,265
2016-04-25T13:13:58.237Z,265
2016-04-25T13:15:12.053Z,270
2016-04-25T13:16:09.931Z,290
2016-04-25T13:16:57.683Z,320
2016-04-25T13:17:57.771Z,355
2016-04-25T13:19:12.007Z,385
2016-04-25T13:19:57.776Z,390
2016-04-25T13:20:57.717Z,415
2016-04-25T13:21:58.094Z,455
2016-04-25T13:22:58.143Z,480
2016-04-25T13:23:57.725Z,500
2016-04-25T13:24:57.445Z,515
2016-04-25T13:25:57.714Z,515
2016-04-25T13:26:57.764Z,510
2016-04-25T13:27:58.360Z,490
2016-04-25T13:29:11.550Z,470
2016-04-25T13:30:12.241Z,475
2016-04-25T13:30:58.181Z,490
2016-04-25T13:31:58.292Z,515
2016-04-25T13:32:57.749Z,535
2016-04-25T13:34:11.392Z,540
2016-04-25T13:34:58.036Z,545
2016-04-25T13:35:57.866Z,575
2016-04-25T13:36:57.805Z,575
2016-04-25T13:37:58.325Z,560
2016-04-25T13:38:58.515Z,560
2016-04-25T13:39:58.080Z,555
2016-04-25T13:40:57.817Z,540
2016-04-25T13:41:57.929Z,530
2016-04-25T13:42:58.307Z,495
2016-04-25T13:43:58.154Z,455
2016-04-25T13:44:58.891Z,430
2016-04-25T13:45:57.909Z,415
2016-04-25T13:46:57.926Z,460
2016-04-25T13:47:58.085Z,535
2016-04-25T13:48:57.917Z,585
2016-04-25T13:49:58.326Z,580
2016-04-25T13:50:57.907Z,535
2016-04-25T13:51:57.956Z,470
2016-04-25T13:52:57.959Z,430
2016-04-25T13:53:57.961Z,410
2016-04-25T13:54:58.183Z,380
2016-04-25T13:55:58.123Z,360
2016-04-25T13:56:58.203Z,370
2016-04-25T13:57:58.191Z,390
2016-04-25T13:58:58.365Z,410
2016-04-25T13:59:58.853Z,415
2016-04-25T14:00:57.481Z,400
2016-04-25T14:01:58.222Z,365
2016-04-25T14:02:57.991Z,345
2016-04-25T14:03:58.041Z,325
2016-04-25T14:04:58.074Z,315
2016-04-25T14:05:58.108Z,320
2016-04-25T14:06:57.954Z,355
2016-04-25T14:07:58.160Z,390
2016-04-25T14:08:58.069Z,415
2016-04-25T14:09:58.697Z,420
2016-04-25T14:10:58.074Z,420
2016-04-25T14:11:58.327Z,420
2016-04-25T14:12:58.298Z,420
2016-04-25T14:13:58.099Z,400
2016-04-25T14:14:58.695Z,370
2016-04-25T14:15:58.135Z,350
2016-04-25T14:16:58.371Z,340
2016-04-25T14:17:58.132Z,345
2016-04-25T14:18:58.196Z,345
2016-04-25T14:19:58.243Z,340
2016-04-25T14:21:12.367Z,330
2016-04-25T14:21:58.336Z,315
2016-04-25T14:22:58.375Z,310
2016-04-25T14:23:58.582Z,320
2016-04-25T14:24:57.929Z,340
2016-04-25T14:25:58.619Z,370
2016-04-25T14:26:58.513Z,400
2016-04-25T14:27:58.481Z,440
2016-04-25T14:28:57.927Z,470
2016-04-25T14:29:58.671Z,480
2016-04-25T14:30:58.507Z,480
2016-04-25T14:31:59.156Z,470